Time;durP1;ratioP1;P1;durP2;ratioP2;P2;SDS_P1;SDS_P2;PMS_P1;PMS_P2;Temp;Humidity;BMP_temperature;BMP_pressure;BME280_temperature;BME280_humidity;BME280_pressure;Samples;Min_cycle;Max_cycle;Signal;HPM_P1;HPM_P2
2023/08/18 00:01:17;;;;;;;21.85;18.30;;;18.60;99.90;;;;;;5035311;28;20194;-76
2023/08/18 00:03:42;;;;;;;20.35;18.25;;;18.60;99.90;;;;;;5037027;28;20216;-75
2023/08/18 00:06:08;;;;;;;13.68;12.48;;;18.70;99.90;;;;;;5035894;28;20209;-75
2023/08/18 00:08:34;;;;;;;19.45;17.35;;;18.50;1.00;;;;;;5015737;28;20544;-76
2023/08/18 00:11:00;;;;;;;21.98;19.58;;;18.40;1.00;;;;;;5037638;28;20636;-77
2023/08/18 00:13:26;;;;;;;20.52;18.42;;;18.20;99.90;;;;;;5031480;28;20190;-75
2023/08/18 00:15:52;;;;;;;19.10;17.00;;;18.10;1.00;;;;;;5013518;28;20179;-76
2023/08/18 00:18:18;;;;;;;17.00;15.30;;;18.10;99.90;;;;;;5032522;28;20599;-75
2023/08/18 00:20:43;;;;;;;20.30;18.10;;;18.30;99.90;;;;;;5034898;28;20213;-78
2023/08/18 00:23:10;;;;;;;21.88;19.17;;;18.20;99.90;;;;;;5031047;28;20222;-76
2023/08/18 00:25:35;;;;;;;23.88;20.13;;;18.10;99.90;;;;;;5035874;28;20224;-75
2023/08/18 00:28:01;;;;;;;20.13;18.13;;;18.20;99.90;;;;;;5040317;28;20588;-76
2023/08/18 00:30:27;;;;;;;18.88;16.88;;;18.30;99.90;;;;;;5036918;28;20191;-78
2023/08/18 00:32:52;;;;;;;19.08;17.02;;;18.40;38.20;;;;;;5021793;28;20182;-75
2023/08/18 00:35:18;;;;;;;17.65;15.95;;;18.20;1.00;;;;;;5032783;28;20183;-75
2023/08/18 00:37:44;;;;;;;18.92;16.90;;;18.20;1.00;;;;;;5014552;28;20641;-76
2023/08/18 00:40:11;;;;;;;19.85;17.23;;;18.20;1.00;;;;;;5033405;28;20696;-77
2023/08/18 00:42:37;;;;;;;21.02;18.52;;;18.20;1.00;;;;;;5030086;28;20201;-76
2023/08/18 00:45:03;;;;;;;19.63;17.63;;;18.10;99.90;;;;;;5040416;28;20209;-76
2023/08/18 00:47:30;;;;;;;20.23;18.13;;;18.10;99.90;;;;;;5038675;28;20274;-75
2023/08/18 00:49:58;;;;;;;20.80;18.58;;;18.10;99.90;;;;;;5035358;28;20197;-76
2023/08/18 00:52:25;;;;;;;21.98;18.92;;;18.10;99.90;;;;;;5033755;28;20248;-75
2023/08/18 00:54:52;;;;;;;21.42;19.10;;;18.10;99.90;;;;;;5027265;28;20202;-75
2023/08/18 00:57:19;;;;;;;20.58;18.45;;;18.00;99.90;;;;;;5040468;28;20531;-76
2023/08/18 00:59:45;;;;;;;18.90;17.00;;;17.90;99.90;;;;;;5015211;28;20213;-75
2023/08/18 01:02:11;;;;;;;23.55;18.58;;;17.90;99.90;;;;;;5036518;28;20403;-77
2023/08/18 01:04:36;;;;;;;20.67;18.58;;;17.90;1.00;;;;;;5017913;28;20550;-74
2023/08/18 01:07:02;;;;;;;19.73;17.73;;;18.00;1.00;;;;;;5028195;28;20175;-76
2023/08/18 01:09:29;;;;;;;17.42;15.77;;;18.10;99.90;;;;;;5033008;28;20496;-75
2023/08/18 01:12:17;;;;;;;18.45;16.55;;;18.20;99.90;;;;;;5030690;28;20187;-76
2023/08/18 01:15:19;;;;;;;20.58;18.48;;;18.10;99.90;;;;;;5028012;28;20240;-76
2023/08/18 01:18:04;;;;;;;20.98;18.75;;;18.10;99.90;;;;;;5030878;28;20221;-75
2023/08/18 01:20:31;;;;;;;22.35;19.10;;;18.30;99.90;;;;;;5013364;28;20266;-76
2023/08/18 01:22:57;;;;;;;21.15;18.95;;;18.30;99.90;;;;;;5007849;28;20286;-76
2023/08/18 01:25:23;;;;;;;21.77;19.48;;;18.40;54.50;;;;;;5031671;28;20204;-75
2023/08/18 01:27:50;;;;;;;21.45;18.95;;;18.40;52.90;;;;;;5030760;28;20532;-76
2023/08/18 01:30:19;;;;;;;20.88;18.50;;;18.40;1.00;;;;;;5031830;28;20652;-76
2023/08/18 01:32:58;;;;;;;19.50;17.30;;;18.00;4.30;;;;;;5030515;28;20182;-75
2023/08/18 01:35:27;;;;;;;24.48;20.65;;;18.00;99.90;;;;;;5036831;28;20182;-76
2023/08/18 01:37:54;;;;;;;20.67;18.50;;;17.90;99.90;;;;;;5030487;28;20187;-75
2023/08/18 01:40:24;;;;;;;19.05;17.15;;;17.90;1.00;;;;;;5029990;28;20216;-76
2023/08/18 01:42:51;;;;;;;18.63;16.73;;;17.90;1.00;;;;;;5033387;28;20174;-76
2023/08/18 01:45:17;;;;;;;19.50;17.35;;;18.00;1.00;;;;;;5033324;28;20255;-77
2023/08/18 01:47:42;;;;;;;16.65;14.95;;;17.90;99.90;;;;;;5030079;28;20235;-75
2023/08/18 01:50:09;;;;;;;17.38;15.68;;;17.90;99.90;;;;;;5017166;28;20190;-76
2023/08/18 01:52:35;;;;;;;19.83;16.52;;;17.80;99.90;;;;;;5030184;28;20191;-76
2023/08/18 01:55:01;;;;;;;17.75;15.93;;;17.70;99.90;;;;;;5032632;28;20729;-76
2023/08/18 01:57:26;;;;;;;17.83;16.08;;;17.60;99.90;;;;;;5032778;28;20610;-75
2023/08/18 01:59:52;;;;;;;18.10;16.00;;;17.60;1.00;;;;;;5031589;28;20210;-76
2023/08/18 02:02:18;;;;;;;16.92;15.25;;;17.70;1.00;;;;;;5032782;28;20321;-76
2023/08/18 02:04:43;;;;;;;15.25;13.85;;;17.70;1.00;;;;;;5030412;28;20297;-77
2023/08/18 02:07:09;;;;;;;16.95;15.27;;;17.80;1.00;;;;;;5028563;28;20780;-76
2023/08/18 02:09:36;;;;;;;17.67;15.20;;;17.80;1.00;;;;;;5026317;28;20191;-75
2023/08/18 02:12:02;;;;;;;18.02;15.20;;;17.80;1.00;;;;;;5031940;28;20236;-75
2023/08/18 02:14:27;;;;;;;19.05;17.05;;;17.80;99.90;;;;;;5027157;28;21002;-76
2023/08/18 02:16:53;;;;;;;17.90;16.00;;;17.70;99.90;;;;;;5028339;28;20170;-75
2023/08/18 02:19:19;;;;;;;18.20;16.38;;;17.50;1.00;;;;;;5027400;28;20221;-75
2023/08/18 02:21:44;;;;;;;20.50;16.95;;;17.40;1.00;;;;;;5030869;28;20560;-75
2023/08/18 02:24:10;;;;;;;22.02;17.90;;;17.40;1.00;;;;;;5036950;28;20251;-76
2023/08/18 02:26:36;;;;;;;17.27;15.52;;;17.10;1.00;;;;;;5032843;28;20193;-75
2023/08/18 02:29:02;;;;;;;17.67;15.88;;;17.20;1.00;;;;;;5033900;28;20194;-75
2023/08/18 02:31:28;;;;;;;18.40;16.30;;;17.30;1.00;;;;;;5035409;28;20183;-75
2023/08/18 02:33:54;;;;;;;17.30;15.50;;;17.30;1.00;;;;;;5030472;28;20210;-76
2023/08/18 02:36:20;;;;;;;16.35;14.75;;;17.50;1.00;;;;;;5032958;28;20292;-77
2023/08/18 02:38:46;;;;;;;16.50;14.80;;;15.90;1.00;;;;;;5033248;28;20268;-75
2023/08/18 02:41:12;;;;;;;16.95;14.93;;;17.70;1.00;;;;;;5036323;28;20186;-76
2023/08/18 02:43:38;;;;;;;15.93;14.23;;;17.80;1.00;;;;;;5036084;28;20721;-74
2023/08/18 02:46:03;;;;;;;12.73;11.63;;;17.80;1.00;;;;;;5030657;28;20261;-77
2023/08/18 02:48:30;;;;;;;13.15;11.95;;;17.80;99.90;;;;;;5032150;28;20192;-76
2023/08/18 02:51:06;;;;;;;13.63;12.32;;;17.80;99.90;;;;;;5038258;28;20185;-76
2023/08/18 02:53:32;;;;;;;14.35;12.98;;;18.80;99.90;;;;;;5032536;28;20206;-76
2023/08/18 02:55:58;;;;;;;12.52;11.40;;;17.60;99.90;;;;;;5029034;28;20221;-77
2023/08/18 02:58:29;;;;;;;11.98;10.90;;;17.50;99.90;;;;;;5031763;28;20233;-76
2023/08/18 03:00:55;;;;;;;9.65;8.85;;;17.40;1.00;;;;;;5029053;28;20966;-75
2023/08/18 03:03:21;;;;;;;10.90;10.00;;;17.30;1.00;;;;;;5030335;28;20245;-75
2023/08/18 03:05:47;;;;;;;10.27;9.38;;;17.30;1.00;;;;;;5032167;28;20210;-76
2023/08/18 03:08:13;;;;;;;11.38;10.27;;;17.20;1.00;;;;;;5029337;28;20997;-75
2023/08/18 03:10:38;;;;;;;10.90;9.93;;;17.10;1.00;;;;;;5027439;28;20186;-75
2023/08/18 03:13:04;;;;;;;11.23;10.23;;;17.20;1.00;;;;;;5008632;28;20761;-76
2023/08/18 03:15:30;;;;;;;12.18;10.98;;;17.20;1.00;;;;;;5011290;28;20187;-76
2023/08/18 03:17:56;;;;;;;11.98;10.90;;;17.40;1.00;;;;;;5037867;28;20913;-75
2023/08/18 03:20:22;;;;;;;10.73;9.63;;;17.50;1.00;;;;;;5030166;28;20206;-75
2023/08/18 03:22:47;;;;;;;11.25;10.25;;;17.50;1.00;;;;;;5014470;28;20637;-75
2023/08/18 03:25:13;;;;;;;12.95;11.75;;;17.50;99.90;;;;;;5015954;28;20183;-75
2023/08/18 03:27:40;;;;;;;15.05;13.52;;;17.50;1.00;;;;;;5030174;28;20183;-75
2023/08/18 03:30:07;;;;;;;11.23;10.10;;;17.60;99.90;;;;;;5029444;28;20668;-76
2023/08/18 03:32:32;;;;;;;12.25;11.15;;;17.60;99.90;;;;;;5025237;28;20186;-77
2023/08/18 03:34:58;;;;;;;12.75;11.65;;;17.50;99.90;;;;;;5032601;28;20210;-75
2023/08/18 03:37:24;;;;;;;12.73;11.52;;;17.50;99.90;;;;;;5032596;28;20189;-76
2023/08/18 03:39:54;;;;;;;12.80;11.60;;;17.60;99.90;;;;;;5034144;28;20207;-77
2023/08/18 03:42:20;;;;;;;13.05;11.70;;;17.60;99.90;;;;;;5031152;28;20210;-76
2023/08/18 03:44:46;;;;;;;12.93;11.82;;;17.60;99.90;;;;;;5028343;28;20226;-76
2023/08/18 03:47:11;;;;;;;12.98;11.77;;;17.60;99.90;;;;;;5037739;28;20705;-76
2023/08/18 03:49:37;;;;;;;13.70;12.38;;;17.60;99.90;;;;;;5038075;28;20187;-75
2023/08/18 03:52:03;;;;;;;13.23;11.93;;;17.70;1.00;;;;;;5035981;28;20289;-75
2023/08/18 03:54:28;;;;;;;13.15;11.85;;;17.70;1.00;;;;;;5039530;28;20660;-75
2023/08/18 03:56:54;;;;;;;12.07;11.02;;;17.70;1.00;;;;;;5028757;28;20189;-76
2023/08/18 03:59:20;;;;;;;14.05;12.65;;;17.70;1.00;;;;;;5031440;28;20259;-76
2023/08/18 04:01:46;;;;;;;13.55;12.35;;;17.70;1.00;;;;;;5035832;28;20660;-76
2023/08/18 04:04:11;;;;;;;12.65;11.48;;;17.60;1.00;;;;;;5035198;28;20206;-76
2023/08/18 04:06:37;;;;;;;13.57;12.18;;;17.60;1.00;;;;;;5036556;28;20236;-77
2023/08/18 04:09:08;;;;;;;12.68;11.40;;;17.60;1.00;;;;;;5034689;28;20269;-76
2023/08/18 04:11:34;;;;;;;15.70;12.77;;;17.60;1.00;;;;;;5033512;28;20183;-76
2023/08/18 04:14:01;;;;;;;11.63;10.55;;;17.60;1.00;;;;;;5033926;28;20206;-75
2023/08/18 04:16:26;;;;;;;14.05;12.60;;;17.60;1.00;;;;;;5034587;28;20284;-76
2023/08/18 04:18:52;;;;;;;13.63;11.70;;;17.50;99.90;;;;;;5036386;28;20261;-76
2023/08/18 04:21:18;;;;;;;12.65;11.30;;;17.50;99.90;;;;;;5013207;28;20187;-75
2023/08/18 04:23:43;;;;;;;11.80;10.70;;;17.40;99.90;;;;;;5034828;28;20238;-74
2023/08/18 04:26:12;;;;;;;12.05;10.75;;;17.40;99.90;;;;;;5035385;28;20178;-75
2023/08/18 04:28:38;;;;;;;11.93;10.82;;;17.40;99.90;;;;;;5033215;28;20632;-75
2023/08/18 04:31:04;;;;;;;11.35;10.23;;;17.40;99.90;;;;;;5032281;28;20190;-76
2023/08/18 04:33:29;;;;;;;10.60;9.68;;;17.50;86.90;;;;;;5036056;28;20203;-75
2023/08/18 04:35:55;;;;;;;14.18;12.88;;;17.40;99.90;;;;;;5030411;28;20747;-75
2023/08/18 04:38:21;;;;;;;14.85;13.48;;;17.40;1.00;;;;;;5036342;28;20230;-76
2023/08/18 04:40:57;;;;;;;13.60;12.32;;;17.30;1.00;;;;;;5020148;28;20235;-75
2023/08/18 04:43:24;;;;;;;12.52;11.32;;;17.40;99.90;;;;;;5032686;28;20271;-75
2023/08/18 04:45:49;;;;;;;14.38;12.88;;;17.50;99.90;;;;;;5026319;28;20183;-78
2023/08/18 04:48:16;;;;;;;11.50;10.48;;;17.60;99.90;;;;;;5019417;28;20231;-76
2023/08/18 04:50:41;;;;;;;11.52;10.43;;;17.60;99.90;;;;;;5031341;28;20210;-76
2023/08/18 04:53:07;;;;;;;13.75;12.45;;;17.70;99.90;;;;;;5039196;28;20213;-76
2023/08/18 04:55:35;;;;;;;12.90;11.80;;;17.70;89.60;;;;;;5036867;28;20185;-75
2023/08/18 04:58:02;;;;;;;14.02;12.80;;;17.80;1.00;;;;;;5030452;28;20197;-75
2023/08/18 05:00:28;;;;;;;12.93;11.57;;;17.80;1.00;;;;;;5031656;28;20700;-75
2023/08/18 05:02:54;;;;;;;13.55;12.25;;;17.80;1.00;;;;;;5028216;28;20237;-75
2023/08/18 05:05:20;;;;;;;13.50;12.30;;;17.80;1.00;;;;;;5032222;28;20618;-75
2023/08/18 05:07:45;;;;;;;14.85;13.48;;;17.80;1.00;;;;;;5033005;28;20186;-75
2023/08/18 05:10:11;;;;;;;13.98;11.68;;;17.80;99.90;;;;;;5027183;28;20187;-76
2023/08/18 05:12:37;;;;;;;13.88;12.40;;;17.70;1.00;;;;;;5037546;28;20182;-75
2023/08/18 05:15:04;;;;;;;14.88;13.48;;;17.80;1.00;;;;;;5031452;28;20213;-77
2023/08/18 05:17:29;;;;;;;14.52;13.05;;;17.70;1.00;;;;;;5035516;28;20296;-76
2023/08/18 05:19:55;;;;;;;13.65;12.35;;;17.80;1.00;;;;;;5032995;28;20725;-77
2023/08/18 05:22:22;;;;;;;13.38;12.07;;;17.80;1.00;;;;;;5033605;28;20577;-75
2023/08/18 05:24:48;;;;;;;13.23;11.93;;;17.80;1.00;;;;;;5035784;28;20669;-76
2023/08/18 05:27:15;;;;;;;16.58;12.10;;;17.80;1.00;;;;;;5036105;28;20183;-75
2023/08/18 05:29:40;;;;;;;12.30;11.18;;;17.80;1.00;;;;;;5031308;28;20194;-76
2023/08/18 05:32:06;;;;;;;13.77;12.38;;;17.90;1.00;;;;;;5034016;28;20558;-76
2023/08/18 05:34:31;;;;;;;17.02;14.23;;;17.80;1.00;;;;;;5040019;28;20202;-76
2023/08/18 05:36:57;;;;;;;14.20;12.80;;;17.80;1.00;;;;;;5031020;28;20253;-75
2023/08/18 05:39:23;;;;;;;14.38;13.07;;;17.90;1.00;;;;;;5037489;28;20202;-75
2023/08/18 05:41:48;;;;;;;14.85;13.48;;;18.00;1.00;;;;;;5037646;28;20186;-75
2023/08/18 05:44:14;;;;;;;14.35;13.05;;;18.10;1.00;;;;;;5033279;28;20209;-75
2023/08/18 05:46:40;;;;;;;12.93;11.82;;;18.10;99.90;;;;;;5034482;28;20199;-75
2023/08/18 05:49:07;;;;;;;15.40;13.90;;;18.10;1.00;;;;;;5038354;28;20214;-75
2023/08/18 05:51:32;;;;;;;13.00;11.77;;;18.20;1.00;;;;;;5027985;28;20547;-77
2023/08/18 05:53:58;;;;;;;15.02;13.45;;;18.30;99.90;;;;;;5026464;28;20285;-75
2023/08/18 05:56:24;;;;;;;15.52;14.02;;;18.50;1.00;;;;;;5027374;28;20313;-75
2023/08/18 05:58:49;;;;;;;14.23;12.85;;;18.30;1.00;;;;;;5029076;28;20179;-75
2023/08/18 06:01:15;;;;;;;15.13;13.75;;;18.50;99.90;;;;;;5032897;28;20657;-76
2023/08/18 06:03:41;;;;;;;13.73;12.52;;;18.60;1.00;;;;;;5035036;28;20203;-76
2023/08/18 06:06:07;;;;;;;12.77;11.65;;;18.70;99.90;;;;;;5033327;28;20178;-75
2023/08/18 06:08:33;;;;;;;14.13;11.90;;;18.90;1.00;;;;;;5035820;28;20174;-76
2023/08/18 06:10:58;;;;;;;13.40;12.20;;;18.90;1.00;;;;;;5036872;28;20584;-76
2023/08/18 06:13:24;;;;;;;12.25;11.07;;;19.00;1.00;;;;;;5035631;28;20661;-76
2023/08/18 06:15:52;;;;;;;15.10;13.23;;;19.10;1.00;;;;;;5032061;28;20274;-75
2023/08/18 06:18:18;;;;;;;14.05;12.82;;;19.30;1.00;;;;;;5036124;28;20178;-75
2023/08/18 06:20:47;;;;;;;14.88;13.48;;;19.40;1.00;;;;;;5036820;28;20214;-76
2023/08/18 06:23:13;;;;;;;14.35;12.95;;;19.50;1.00;;;;;;5035497;28;20195;-75
2023/08/18 06:25:39;;;;;;;14.40;13.10;;;19.60;56.40;;;;;;5032121;28;20232;-77
2023/08/18 06:28:06;;;;;;;14.18;12.77;;;19.60;9.10;;;;;;5035832;28;20185;-76
2023/08/18 06:30:32;;;;;;;13.32;12.10;;;19.60;99.90;;;;;;5014777;28;20262;-74
2023/08/18 06:32:58;;;;;;;12.68;11.57;;;19.80;99.90;;;;;;5033067;28;20269;-76
2023/08/18 06:35:23;;;;;;;12.00;11.00;;;19.90;1.00;;;;;;5035517;28;20183;-75
2023/08/18 06:37:49;;;;;;;12.82;11.63;;;19.90;99.90;;;;;;5035075;28;20224;-77
2023/08/18 06:40:15;;;;;;;12.15;11.07;;;19.90;1.00;;;;;;5032666;28;20312;-77
2023/08/18 06:42:40;;;;;;;13.48;11.25;;;20.10;99.90;;;;;;5037417;28;20186;-75
2023/08/18 06:45:07;;;;;;;14.10;12.70;;;20.00;99.90;;;;;;5031447;28;20190;-74
2023/08/18 06:47:32;;;;;;;12.75;11.75;;;20.00;99.90;;;;;;5034227;28;21225;-77
2023/08/18 06:49:59;;;;;;;13.60;12.40;;;20.00;99.90;;;;;;5034177;28;20208;-76
2023/08/18 06:52:26;;;;;;;14.25;13.02;;;20.00;99.90;;;;;;5017413;28;20280;-75
2023/08/18 06:54:52;;;;;;;13.18;12.07;;;19.90;99.90;;;;;;5034836;28;20763;-73
2023/08/18 06:57:17;;;;;;;13.95;12.65;;;19.80;1.00;;;;;;5075457;22;20310;-88
2023/08/18 06:59:43;;;;;;;14.02;12.73;;;19.70;1.00;;;;;;4994920;28;20212;-88
2023/08/18 07:02:09;;;;;;;13.27;12.07;;;19.90;1.00;;;;;;4994142;28;20187;-88
2023/08/18 07:04:34;;;;;;;12.75;11.50;;;19.90;1.00;;;;;;4994567;28;20605;-88
2023/08/18 07:07:00;;;;;;;15.00;13.63;;;20.10;1.00;;;;;;4995919;28;20209;-89
2023/08/18 07:09:26;;;;;;;14.30;13.10;;;20.10;99.90;;;;;;4994728;28;20207;-88
2023/08/18 07:11:51;;;;;;;16.90;15.40;;;20.30;99.90;;;;;;4994449;28;20532;-88
2023/08/18 07:14:19;;;;;;;13.93;12.63;;;20.20;99.90;;;;;;4995386;28;20179;-87
2023/08/18 07:16:45;;;;;;;12.77;11.57;;;20.20;1.20;;;;;;4994959;28;20262;-89
2023/08/18 07:19:10;;;;;;;14.30;13.00;;;20.30;99.90;;;;;;4992217;28;20318;-89
2023/08/18 07:21:36;;;;;;;13.00;11.90;;;20.60;1.00;;;;;;4994836;28;20175;-88
2023/08/18 07:24:03;;;;;;;12.68;11.60;;;20.70;1.00;;;;;;4998830;28;20180;-88
2023/08/18 07:26:28;;;;;;;13.52;12.43;;;20.80;99.90;;;;;;4999400;28;20669;-82
2023/08/18 07:28:54;;;;;;;13.25;12.10;;;21.00;99.90;;;;;;5050060;23;20246;-76
2023/08/18 07:31:20;;;;;;;12.85;11.75;;;21.10;52.70;;;;;;5056975;28;20631;-75
2023/08/18 07:33:45;;;;;;;11.80;10.73;;;21.20;3.10;;;;;;5065895;28;20193;-76
2023/08/18 07:36:11;;;;;;;12.38;11.38;;;21.30;1.00;;;;;;5076156;28;20563;-75
2023/08/18 07:38:36;;;;;;;11.48;10.48;;;21.30;1.00;;;;;;5076817;28;20260;-76
2023/08/18 07:41:02;;;;;;;11.23;10.32;;;21.30;1.00;;;;;;5075378;28;20213;-76
2023/08/18 07:43:28;;;;;;;11.45;10.55;;;21.20;1.00;;;;;;5076494;28;20201;-76
2023/08/18 07:45:56;;;;;;;12.02;10.98;;;21.30;1.00;;;;;;5076073;28;20174;-76
2023/08/18 07:48:21;;;;;;;12.25;11.15;;;21.60;1.00;;;;;;5076704;28;20182;-76
2023/08/18 07:50:47;;;;;;;11.95;10.88;;;21.80;1.00;;;;;;5076495;28;20185;-76
2023/08/18 07:53:13;;;;;;;11.60;10.60;;;21.90;1.00;;;;;;5076429;28;20606;-77
2023/08/18 07:55:38;;;;;;;12.25;11.07;;;21.90;1.00;;;;;;5075977;28;20185;-76
2023/08/18 07:58:04;;;;;;;12.20;11.13;;;21.80;1.00;;;;;;5076429;28;20178;-76
2023/08/18 08:00:32;;;;;;;9.98;9.18;;;21.70;1.00;;;;;;5076435;28;20318;-76
2023/08/18 08:02:58;;;;;;;10.45;9.50;;;21.80;1.00;;;;;;5076167;28;20252;-75
2023/08/18 08:05:23;;;;;;;12.65;11.65;;;21.90;1.00;;;;;;5074470;28;20723;-76
2023/08/18 08:07:50;;;;;;;10.68;9.80;;;22.10;99.90;;;;;;5076169;28;20199;-77
2023/08/18 08:10:16;;;;;;;11.13;10.05;;;22.20;1.00;;;;;;5075050;28;20202;-76
2023/08/18 08:12:42;;;;;;;11.10;10.13;;;22.30;99.90;;;;;;5076032;28;20209;-76
2023/08/18 08:15:10;;;;;;;12.00;11.00;;;22.50;1.00;;;;;;5076058;28;20181;-76
2023/08/18 08:17:36;;;;;;;10.02;9.23;;;22.40;1.00;;;;;;5075983;28;20279;-76
2023/08/18 08:20:16;;;;;;;9.73;8.93;;;22.50;99.90;;;;;;5075924;28;20190;-76
2023/08/18 08:22:45;;;;;;;10.88;9.98;;;22.60;1.00;;;;;;5075837;28;20165;-76
2023/08/18 08:25:12;;;;;;;11.43;10.48;;;22.60;99.90;;;;;;5075864;28;20534;-76
2023/08/18 08:27:38;;;;;;;10.48;9.48;;;22.50;99.90;;;;;;5075878;28;20185;-76
2023/08/18 08:30:06;;;;;;;12.02;11.02;;;22.80;1.00;;;;;;5075914;28;20182;-76
2023/08/18 08:32:31;;;;;;;10.75;9.95;;;23.00;1.00;;;;;;5075550;28;20170;-76
2023/08/18 08:34:57;;;;;;;11.15;10.32;;;23.00;1.00;;;;;;5074093;28;20197;-76
2023/08/18 08:37:22;;;;;;;10.45;9.50;;;23.00;1.00;;;;;;5075634;28;20178;-76
2023/08/18 08:39:48;;;;;;;10.15;9.35;;;23.10;99.90;;;;;;5075640;28;20536;-76
2023/08/18 08:42:14;;;;;;;10.25;9.43;;;23.00;1.00;;;;;;5075652;28;20265;-76
2023/08/18 08:44:40;;;;;;;9.73;8.93;;;23.00;1.00;;;;;;5075347;28;20205;-77
2023/08/18 08:47:06;;;;;;;10.63;9.43;;;23.00;1.00;;;;;;5075001;28;20240;-76
2023/08/18 08:49:34;;;;;;;10.82;9.93;;;23.00;99.90;;;;;;5075533;28;20220;-76
2023/08/18 08:52:06;;;;;;;11.07;10.07;;;23.00;1.00;;;;;;5075571;28;20174;-76
2023/08/18 08:54:36;;;;;;;10.95;10.00;;;22.50;1.00;;;;;;5075149;28;20621;-76
2023/08/18 08:57:04;;;;;;;9.77;8.98;;;22.50;99.90;;;;;;5074710;28;20196;-76
2023/08/18 08:59:30;;;;;;;10.30;9.50;;;22.60;99.90;;;;;;5075344;28;20199;-78
2023/08/18 09:01:56;;;;;;;10.00;9.20;;;22.60;1.00;;;;;;5075416;28;20173;-77
2023/08/18 09:04:23;;;;;;;10.73;9.82;;;22.60;99.90;;;;;;5074604;28;20242;-77
2023/08/18 09:06:48;;;;;;;9.52;8.80;;;22.60;1.00;;;;;;5074130;28;20184;-77
2023/08/18 09:09:14;;;;;;;10.60;9.70;;;22.50;99.90;;;;;;5074846;28;20173;-77
2023/08/18 09:11:47;;;;;;;10.70;9.77;;;22.50;1.00;;;;;;5075124;28;20177;-78
2023/08/18 09:14:14;;;;;;;9.82;9.02;;;22.50;1.00;;;;;;5074817;28;20707;-78
2023/08/18 09:16:42;;;;;;;8.90;8.20;;;22.50;1.00;;;;;;5074478;28;20181;-77
2023/08/18 09:19:14;;;;;;;9.13;8.43;;;22.60;1.00;;;;;;5074779;28;20256;-77
2023/08/18 09:21:41;;;;;;;8.52;7.82;;;22.60;1.00;;;;;;5074911;28;20168;-77
2023/08/18 09:24:07;;;;;;;9.38;8.57;;;22.70;1.00;;;;;;5073934;28;20220;-77
2023/08/18 09:26:33;;;;;;;8.70;8.02;;;22.90;1.00;;;;;;5072008;28;20262;-77
2023/08/18 09:28:58;;;;;;;8.00;7.30;;;23.10;99.90;;;;;;5074796;28;20212;-77
2023/08/18 09:31:24;;;;;;;8.25;7.65;;;23.30;99.90;;;;;;5071542;28;20550;-77
2023/08/18 09:33:52;;;;;;;8.27;7.50;;;23.30;99.90;;;;;;5069822;28;20564;-77
2023/08/18 09:36:19;;;;;;;7.40;6.88;;;23.20;99.90;;;;;;5055166;28;20578;-77
2023/08/18 09:38:45;;;;;;;8.05;7.35;;;23.30;1.00;;;;;;5074298;28;20185;-77
2023/08/18 09:41:12;;;;;;;8.20;7.57;;;23.30;1.00;;;;;;5073883;28;20577;-76
2023/08/18 09:43:39;;;;;;;8.10;7.30;;;23.60;1.00;;;;;;5074121;28;20535;-77
2023/08/18 09:46:06;;;;;;;8.40;7.72;;;23.70;1.00;;;;;;5073478;28;20162;-76
2023/08/18 09:48:39;;;;;;;7.53;7.03;;;23.60;1.00;;;;;;5056158;28;20180;-77
2023/08/18 09:51:12;;;;;;;7.63;6.95;;;23.70;1.00;;;;;;5074384;28;20628;-77
2023/08/18 09:53:50;;;;;;;7.85;7.15;;;23.80;1.00;;;;;;5073992;28;20652;-76
2023/08/18 09:56:23;;;;;;;7.57;6.85;;;24.00;1.00;;;;;;5073849;28;20210;-77
2023/08/18 09:59:17;;;;;;;8.30;7.60;;;24.20;1.00;;;;;;5074413;28;20234;-77
2023/08/18 10:01:46;;;;;;;7.70;6.35;;;24.20;1.00;;;;;;5074145;28;20178;-76
2023/08/18 10:04:12;;;;;;;6.75;6.18;;;24.20;1.00;;;;;;5073800;28;20189;-76
2023/08/18 10:06:39;;;;;;;6.57;6.10;;;24.50;1.00;;;;;;5073367;28;20544;-76
2023/08/18 10:09:05;;;;;;;7.63;7.03;;;24.70;1.00;;;;;;5074216;28;20558;-76
2023/08/18 10:11:35;;;;;;;7.50;6.50;;;24.90;99.90;;;;;;5073967;28;20170;-76
2023/08/18 10:14:01;;;;;;;6.78;6.18;;;24.90;1.00;;;;;;5073700;28;20665;-77
2023/08/18 10:16:27;;;;;;;6.78;6.28;;;25.10;1.00;;;;;;5073245;28;20177;-76
2023/08/18 10:18:57;;;;;;;7.72;6.30;;;25.20;1.00;;;;;;5073959;28;20177;-76
2023/08/18 10:21:23;;;;;;;6.85;6.38;;;25.20;99.90;;;;;;5073984;28;20244;-77
2023/08/18 10:23:49;;;;;;;6.85;6.25;;;25.30;99.90;;;;;;5073550;28;20272;-76
2023/08/18 10:26:14;;;;;;;6.88;6.38;;;25.30;99.90;;;;;;5073123;28;20675;-76
2023/08/18 10:28:40;;;;;;;6.53;6.03;;;25.40;99.90;;;;;;5073608;28;20185;-77
2023/08/18 10:31:08;;;;;;;6.90;6.20;;;25.50;99.90;;;;;;5073576;28;20572;-77
2023/08/18 10:33:39;;;;;;;7.53;7.03;;;25.50;99.90;;;;;;5073406;28;20193;-77
2023/08/18 10:36:06;;;;;;;7.13;6.63;;;25.60;99.90;;;;;;5073097;28;20189;-77
2023/08/18 10:38:36;;;;;;;8.15;7.45;;;25.50;99.90;;;;;;5073660;28;20174;-77
2023/08/18 10:41:02;;;;;;;7.88;7.10;;;25.50;99.90;;;;;;5073500;28;20190;-77
2023/08/18 10:43:28;;;;;;;7.15;6.50;;;25.50;99.90;;;;;;5073299;28;20185;-77
2023/08/18 10:46:01;;;;;;;6.82;6.32;;;25.60;99.90;;;;;;5073096;28;20204;-76
2023/08/18 10:48:33;;;;;;;7.03;6.53;;;25.80;99.90;;;;;;5073599;28;20635;-76
2023/08/18 10:51:00;;;;;;;6.15;5.65;;;25.90;99.90;;;;;;5073453;28;20173;-77
2023/08/18 10:53:26;;;;;;;5.53;5.13;;;26.10;99.90;;;;;;5073224;28;20223;-77
2023/08/18 10:55:56;;;;;;;5.38;4.97;;;26.10;99.90;;;;;;5072764;28;20192;-78
2023/08/18 10:58:21;;;;;;;6.65;6.05;;;26.20;99.90;;;;;;5072730;28;20300;-76
2023/08/18 11:00:49;;;;;;;6.18;5.63;;;26.30;99.90;;;;;;5073296;28;20280;-77
2023/08/18 11:03:15;;;;;;;5.72;5.28;;;26.50;47.30;;;;;;5073107;28;20227;-77
2023/08/18 11:05:41;;;;;;;5.30;4.90;;;26.60;1.00;;;;;;5072703;28;20176;-76
2023/08/18 11:08:10;;;;;;;5.70;5.30;;;26.60;22.30;;;;;;5073315;28;20256;-77
2023/08/18 11:10:39;;;;;;;5.88;5.38;;;26.60;9.60;;;;;;5073174;28;20185;-77
2023/08/18 11:13:05;;;;;;;5.30;4.90;;;26.70;11.60;;;;;;5073030;28;20193;-76
2023/08/18 11:15:31;;;;;;;5.18;4.72;;;26.80;1.00;;;;;;5072807;28;20169;-77
2023/08/18 11:17:57;;;;;;;4.95;4.65;;;27.00;1.00;;;;;;5073122;28;20250;-78
2023/08/18 11:20:23;;;;;;;5.18;4.88;;;27.00;1.00;;;;;;5073076;28;20231;-78
2023/08/18 11:22:51;;;;;;;5.38;4.97;;;27.00;1.00;;;;;;5072966;28;20178;-78
2023/08/18 11:25:17;;;;;;;6.03;5.47;;;27.00;1.00;;;;;;5072522;28;20577;-76
2023/08/18 11:27:45;;;;;;;5.22;4.82;;;27.10;1.00;;;;;;5072894;28;20530;-76
2023/08/18 11:30:12;;;;;;;5.47;5.07;;;27.20;1.00;;;;;;5073172;28;20248;-79
2023/08/18 11:32:39;;;;;;;5.70;5.30;;;27.10;1.00;;;;;;5073067;28;20662;-78
2023/08/18 11:35:07;;;;;;;5.95;5.50;;;27.20;1.00;;;;;;5072553;28;20188;-77
2023/08/18 11:37:42;;;;;;;5.57;5.07;;;27.30;1.00;;;;;;5072945;28;20170;-77
2023/08/18 11:40:12;;;;;;;5.15;4.75;;;27.30;1.00;;;;;;5072983;28;20182;-78
2023/08/18 11:42:46;;;;;;;5.55;5.18;;;27.40;1.00;;;;;;5072781;28;20541;-77
2023/08/18 11:45:16;;;;;;;5.50;5.10;;;27.40;1.00;;;;;;5072455;28;20170;-76
2023/08/18 11:47:43;;;;;;;5.28;4.88;;;27.50;1.00;;;;;;5072881;28;20181;-78
2023/08/18 11:50:09;;;;;;;6.35;5.25;;;27.60;1.00;;;;;;5072775;28;20261;-76
2023/08/18 11:52:50;;;;;;;5.45;5.05;;;27.60;1.00;;;;;;5072696;28;20174;-76
2023/08/18 11:55:27;;;;;;;4.97;4.57;;;27.70;1.00;;;;;;5072333;28;20194;-76
2023/08/18 11:57:53;;;;;;;5.28;4.90;;;27.70;1.00;;;;;;5054704;28;20185;-78
2023/08/18 12:00:20;;;;;;;5.82;5.32;;;27.70;1.00;;;;;;5072747;28;20190;-77
2023/08/18 12:02:47;;;;;;;5.18;4.75;;;27.80;1.00;;;;;;5072491;28;20250;-78
2023/08/18 12:05:23;;;;;;;5.72;5.20;;;27.70;1.00;;;;;;5072188;28;20194;-76
2023/08/18 12:07:53;;;;;;;5.45;4.95;;;27.70;1.00;;;;;;5073015;28;20658;-78
2023/08/18 12:10:19;;;;;;;5.50;5.10;;;27.80;1.00;;;;;;5076200;28;20178;-77
2023/08/18 12:12:56;;;;;;;5.70;5.28;;;27.90;1.00;;;;;;5076093;28;20170;-77
2023/08/18 12:15:25;;;;;;;5.47;5.18;;;27.90;1.00;;;;;;5075499;28;20260;-77
2023/08/18 12:17:50;;;;;;;5.90;5.43;;;28.10;1.00;;;;;;5076016;28;20180;-75
2023/08/18 12:20:20;;;;;;;5.85;5.45;;;28.10;1.00;;;;;;5076036;28;20644;-78
2023/08/18 12:22:50;;;;;;;6.70;6.20;;;28.20;1.00;;;;;;5076230;28;20616;-77
2023/08/18 12:25:20;;;;;;;6.90;6.30;;;28.20;1.00;;;;;;5075429;28;20174;-78
2023/08/18 12:27:46;;;;;;;6.55;6.05;;;28.20;1.00;;;;;;5075892;28;20605;-75
2023/08/18 12:30:13;;;;;;;6.30;5.80;;;28.20;1.00;;;;;;5071607;28;20624;-75
2023/08/18 12:32:39;;;;;;;6.20;5.70;;;28.20;1.00;;;;;;5096227;28;20184;-75
2023/08/18 12:35:06;;;;;;;5.90;5.40;;;28.10;1.00;;;;;;5095830;28;20177;-75
2023/08/18 12:37:31;;;;;;;6.03;5.53;;;28.20;1.00;;;;;;5077950;28;20172;-76